sensor_id;sensor_type;location;lat;lon;timestamp;P1;durP1;ratioP1;P2;durP2;ratioP2
25327;SDS011;13279;51.300;12.394;2023-05-10T00:00:47;6.70;;;3.93;;
25327;SDS011;13279;51.300;12.394;2023-05-10T00:03:14;6.20;;;3.70;;
25327;SDS011;13279;51.300;12.394;2023-05-10T00:05:41;6.60;;;3.63;;
25327;SDS011;13279;51.300;12.394;2023-05-10T00:08:09;5.90;;;3.70;;
25327;SDS011;13279;51.300;12.394;2023-05-10T00:10:36;3.93;;;3.53;;
25327;SDS011;13279;51.300;12.394;2023-05-10T00:13:03;4.17;;;3.57;;
25327;SDS011;13279;51.300;12.394;2023-05-10T00:15:33;9.97;;;4.10;;
25327;SDS011;13279;51.300;12.394;2023-05-10T00:18:01;4.67;;;4.27;;
25327;SDS011;13279;51.300;12.394;2023-05-10T00:20:29;4.47;;;3.77;;
25327;SDS011;13279;51.300;12.394;2023-05-10T00:22:56;5.67;;;3.80;;
25327;SDS011;13279;51.300;12.394;2023-05-10T00:25:23;6.47;;;3.87;;
25327;SDS011;13279;51.300;12.394;2023-05-10T00:27:50;7.07;;;4.00;;
25327;SDS011;13279;51.300;12.394;2023-05-10T00:30:20;5.33;;;4.20;;
25327;SDS011;13279;51.300;12.394;2023-05-10T00:32:49;5.87;;;3.70;;
25327;SDS011;13279;51.300;12.394;2023-05-10T00:35:17;6.93;;;4.13;;
25327;SDS011;13279;51.300;12.394;2023-05-10T00:37:44;7.80;;;3.70;;
25327;SDS011;13279;51.300;12.394;2023-05-10T00:40:12;6.97;;;4.00;;
25327;SDS011;13279;51.300;12.394;2023-05-10T00:42:43;4.60;;;3.43;;
25327;SDS011;13279;51.300;12.394;2023-05-10T00:45:12;4.70;;;3.33;;
25327;SDS011;13279;51.300;12.394;2023-05-10T00:47:39;6.87;;;4.20;;
25327;SDS011;13279;51.300;12.394;2023-05-10T00:50:09;6.37;;;3.60;;
25327;SDS011;13279;51.300;12.394;2023-05-10T00:52:37;4.00;;;3.63;;
25327;SDS011;13279;51.300;12.394;2023-05-10T00:55:05;4.47;;;3.37;;
25327;SDS011;13279;51.300;12.394;2023-05-10T00:57:33;4.20;;;3.67;;
25327;SDS011;13279;51.300;12.394;2023-05-10T01:00:01;6.40;;;3.83;;
25327;SDS011;13279;51.300;12.394;2023-05-10T01:02:29;8.17;;;3.63;;
25327;SDS011;13279;51.300;12.394;2023-05-10T01:04:56;5.50;;;3.80;;
25327;SDS011;13279;51.300;12.394;2023-05-10T01:07:25;6.77;;;3.57;;
25327;SDS011;13279;51.300;12.394;2023-05-10T01:09:53;9.43;;;3.93;;
25327;SDS011;13279;51.300;12.394;2023-05-10T01:12:20;10.90;;;4.10;;
25327;SDS011;13279;51.300;12.394;2023-05-10T01:14:48;6.27;;;4.23;;
25327;SDS011;13279;51.300;12.394;2023-05-10T01:17:15;4.47;;;3.43;;
25327;SDS011;13279;51.300;12.394;2023-05-10T01:19:44;9.57;;;3.70;;
25327;SDS011;13279;51.300;12.394;2023-05-10T01:22:15;4.33;;;3.90;;
25327;SDS011;13279;51.300;12.394;2023-05-10T01:28:13;6.43;;;3.40;;
25327;SDS011;13279;51.300;12.394;2023-05-10T01:31:17;7.63;;;3.60;;
25327;SDS011;13279;51.300;12.394;2023-05-10T01:33:52;6.40;;;3.60;;
25327;SDS011;13279;51.300;12.394;2023-05-10T01:36:26;5.40;;;3.77;;
25327;SDS011;13279;51.300;12.394;2023-05-10T01:39:01;4.00;;;3.50;;
25327;SDS011;13279;51.300;12.394;2023-05-10T01:41:36;8.47;;;3.43;;
25327;SDS011;13279;51.300;12.394;2023-05-10T01:44:10;5.30;;;4.00;;
25327;SDS011;13279;51.300;12.394;2023-05-10T01:46:45;6.27;;;3.80;;
25327;SDS011;13279;51.300;12.394;2023-05-10T01:49:23;6.47;;;3.67;;
25327;SDS011;13279;51.300;12.394;2023-05-10T01:51:53;9.03;;;4.37;;
25327;SDS011;13279;51.300;12.394;2023-05-10T01:54:24;5.87;;;3.73;;
25327;SDS011;13279;51.300;12.394;2023-05-10T01:56:55;9.27;;;4.13;;
25327;SDS011;13279;51.300;12.394;2023-05-10T01:59:28;4.30;;;3.10;;
25327;SDS011;13279;51.300;12.394;2023-05-10T02:02:02;4.57;;;3.13;;
25327;SDS011;13279;51.300;12.394;2023-05-10T02:04:33;6.67;;;3.80;;
25327;SDS011;13279;51.300;12.394;2023-05-10T02:07:04;4.93;;;3.43;;
25327;SDS011;13279;51.300;12.394;2023-05-10T02:09:33;4.77;;;3.83;;
25327;SDS011;13279;51.300;12.394;2023-05-10T02:12:03;4.83;;;3.67;;
25327;SDS011;13279;51.300;12.394;2023-05-10T02:14:35;6.73;;;3.83;;
25327;SDS011;13279;51.300;12.394;2023-05-10T02:17:04;6.27;;;3.40;;
25327;SDS011;13279;51.300;12.394;2023-05-10T02:19:34;4.73;;;3.87;;
25327;SDS011;13279;51.300;12.394;2023-05-10T02:22:05;4.67;;;3.63;;
25327;SDS011;13279;51.300;12.394;2023-05-10T02:24:33;5.07;;;3.80;;
25327;SDS011;13279;51.300;12.394;2023-05-10T02:27:03;4.97;;;3.60;;
25327;SDS011;13279;51.300;12.394;2023-05-10T02:29:31;4.20;;;3.77;;
25327;SDS011;13279;51.300;12.394;2023-05-10T02:31:59;8.30;;;3.43;;
25327;SDS011;13279;51.300;12.394;2023-05-10T02:34:29;8.13;;;3.43;;
25327;SDS011;13279;51.300;12.394;2023-05-10T02:36:59;7.00;;;3.30;;
25327;SDS011;13279;51.300;12.394;2023-05-10T02:39:31;4.80;;;3.40;;
25327;SDS011;13279;51.300;12.394;2023-05-10T02:41:59;5.77;;;3.57;;
25327;SDS011;13279;51.300;12.394;2023-05-10T02:44:28;8.17;;;3.77;;
25327;SDS011;13279;51.300;12.394;2023-05-10T02:46:57;4.03;;;3.30;;
25327;SDS011;13279;51.300;12.394;2023-05-10T02:49:25;9.47;;;4.20;;
25327;SDS011;13279;51.300;12.394;2023-05-10T02:51:56;5.40;;;3.60;;
25327;SDS011;13279;51.300;12.394;2023-05-10T02:54:29;7.03;;;3.90;;
25327;SDS011;13279;51.300;12.394;2023-05-10T02:57:00;9.93;;;3.80;;
25327;SDS011;13279;51.300;12.394;2023-05-10T02:59:29;11.40;;;4.40;;
25327;SDS011;13279;51.300;12.394;2023-05-10T03:01:58;6.57;;;3.80;;
25327;SDS011;13279;51.300;12.394;2023-05-10T03:04:25;8.03;;;3.63;;
25327;SDS011;13279;51.300;12.394;2023-05-10T03:06:55;4.93;;;3.60;;
25327;SDS011;13279;51.300;12.394;2023-05-10T03:09:25;5.70;;;3.10;;
25327;SDS011;13279;51.300;12.394;2023-05-10T03:11:55;5.60;;;3.10;;
25327;SDS011;13279;51.300;12.394;2023-05-10T03:14:32;7.87;;;3.63;;
25327;SDS011;13279;51.300;12.394;2023-05-10T03:17:10;4.93;;;3.70;;
25327;SDS011;13279;51.300;12.394;2023-05-10T03:19:43;4.87;;;4.37;;
25327;SDS011;13279;51.300;12.394;2023-05-10T03:22:18;10.03;;;3.90;;
25327;SDS011;13279;51.300;12.394;2023-05-10T03:24:57;7.47;;;3.40;;
25327;SDS011;13279;51.300;12.394;2023-05-10T03:27:28;3.83;;;3.33;;
25327;SDS011;13279;51.300;12.394;2023-05-10T03:29:59;3.73;;;3.43;;
25327;SDS011;13279;51.300;12.394;2023-05-10T03:32:31;5.73;;;4.07;;
25327;SDS011;13279;51.300;12.394;2023-05-10T03:35:00;9.83;;;3.83;;
25327;SDS011;13279;51.300;12.394;2023-05-10T03:37:28;4.23;;;3.63;;
25327;SDS011;13279;51.300;12.394;2023-05-10T03:39:59;4.93;;;3.30;;
25327;SDS011;13279;51.300;12.394;2023-05-10T03:42:29;4.03;;;3.50;;
25327;SDS011;13279;51.300;12.394;2023-05-10T03:44:56;7.60;;;4.37;;
25327;SDS011;13279;51.300;12.394;2023-05-10T03:47:24;5.17;;;3.70;;
25327;SDS011;13279;51.300;12.394;2023-05-10T03:49:51;4.20;;;3.70;;
25327;SDS011;13279;51.300;12.394;2023-05-10T03:52:19;5.67;;;3.90;;
25327;SDS011;13279;51.300;12.394;2023-05-10T03:54:48;7.40;;;3.93;;
25327;SDS011;13279;51.300;12.394;2023-05-10T03:57:18;4.93;;;3.70;;
25327;SDS011;13279;51.300;12.394;2023-05-10T03:59:45;4.37;;;3.53;;
25327;SDS011;13279;51.300;12.394;2023-05-10T04:02:13;5.67;;;3.93;;
25327;SDS011;13279;51.300;12.394;2023-05-10T04:04:40;6.37;;;4.77;;
25327;SDS011;13279;51.300;12.394;2023-05-10T04:07:08;3.80;;;3.50;;
25327;SDS011;13279;51.300;12.394;2023-05-10T04:09:36;11.90;;;3.80;;
25327;SDS011;13279;51.300;12.394;2023-05-10T04:12:04;5.53;;;3.50;;
25327;SDS011;13279;51.300;12.394;2023-05-10T04:14:33;4.77;;;3.53;;
25327;SDS011;13279;51.300;12.394;2023-05-10T04:17:00;4.63;;;3.47;;
25327;SDS011;13279;51.300;12.394;2023-05-10T04:19:28;7.03;;;3.33;;
25327;SDS011;13279;51.300;12.394;2023-05-10T04:21:56;4.43;;;3.47;;
25327;SDS011;13279;51.300;12.394;2023-05-10T04:24:24;5.47;;;3.70;;
25327;SDS011;13279;51.300;12.394;2023-05-10T04:26:52;5.30;;;3.70;;
25327;SDS011;13279;51.300;12.394;2023-05-10T04:29:20;8.30;;;3.43;;
25327;SDS011;13279;51.300;12.394;2023-05-10T04:31:49;6.80;;;3.47;;
25327;SDS011;13279;51.300;12.394;2023-05-10T04:34:17;7.43;;;3.87;;
25327;SDS011;13279;51.300;12.394;2023-05-10T04:36:45;4.97;;;3.73;;
25327;SDS011;13279;51.300;12.394;2023-05-10T04:39:15;6.60;;;3.83;;
25327;SDS011;13279;51.300;12.394;2023-05-10T04:41:42;5.00;;;3.53;;
25327;SDS011;13279;51.300;12.394;2023-05-10T04:44:10;4.97;;;3.67;;
25327;SDS011;13279;51.300;12.394;2023-05-10T04:46:37;7.77;;;3.40;;
25327;SDS011;13279;51.300;12.394;2023-05-10T04:49:05;3.67;;;3.30;;
25327;SDS011;13279;51.300;12.394;2023-05-10T04:51:33;4.43;;;3.50;;
25327;SDS011;13279;51.300;12.394;2023-05-10T04:54:00;4.47;;;3.40;;
25327;SDS011;13279;51.300;12.394;2023-05-10T04:56:28;5.23;;;3.70;;
25327;SDS011;13279;51.300;12.394;2023-05-10T04:58:55;4.23;;;3.30;;
25327;SDS011;13279;51.300;12.394;2023-05-10T05:01:23;3.80;;;3.30;;
25327;SDS011;13279;51.300;12.394;2023-05-10T05:03:51;4.47;;;3.70;;
25327;SDS011;13279;51.300;12.394;2023-05-10T05:06:20;8.30;;;3.70;;
25327;SDS011;13279;51.300;12.394;2023-05-10T05:08:50;6.60;;;3.23;;
25327;SDS011;13279;51.300;12.394;2023-05-10T05:11:17;9.93;;;3.47;;
25327;SDS011;13279;51.300;12.394;2023-05-10T05:13:46;16.87;;;3.83;;
25327;SDS011;13279;51.300;12.394;2023-05-10T05:16:13;5.47;;;2.83;;
25327;SDS011;13279;51.300;12.394;2023-05-10T05:18:41;6.50;;;3.23;;
25327;SDS011;13279;51.300;12.394;2023-05-10T05:21:14;4.97;;;3.30;;
25327;SDS011;13279;51.300;12.394;2023-05-10T05:23:44;6.30;;;3.53;;
25327;SDS011;13279;51.300;12.394;2023-05-10T05:26:11;5.90;;;3.30;;
25327;SDS011;13279;51.300;12.394;2023-05-10T05:28:40;5.77;;;3.60;;
25327;SDS011;13279;51.300;12.394;2023-05-10T05:31:07;3.53;;;3.23;;
25327;SDS011;13279;51.300;12.394;2023-05-10T05:33:35;5.83;;;2.93;;
25327;SDS011;13279;51.300;12.394;2023-05-10T05:36:02;5.43;;;3.63;;
25327;SDS011;13279;51.300;12.394;2023-05-10T05:38:31;4.30;;;3.40;;
25327;SDS011;13279;51.300;12.394;2023-05-10T05:41:00;6.13;;;3.57;;
25327;SDS011;13279;51.300;12.394;2023-05-10T05:43:28;4.23;;;3.20;;
25327;SDS011;13279;51.300;12.394;2023-05-10T05:45:56;7.23;;;3.40;;
25327;SDS011;13279;51.300;12.394;2023-05-10T05:48:24;5.43;;;3.47;;
25327;SDS011;13279;51.300;12.394;2023-05-10T05:50:53;7.93;;;3.60;;
25327;SDS011;13279;51.300;12.394;2023-05-10T05:53:22;3.07;;;2.83;;
25327;SDS011;13279;51.300;12.394;2023-05-10T05:55:52;6.03;;;3.30;;
25327;SDS011;13279;51.300;12.394;2023-05-10T05:58:22;9.43;;;3.83;;
25327;SDS011;13279;51.300;12.394;2023-05-10T06:00:49;5.27;;;2.97;;
25327;SDS011;13279;51.300;12.394;2023-05-10T06:03:18;5.40;;;3.53;;
25327;SDS011;13279;51.300;12.394;2023-05-10T06:05:46;4.53;;;3.57;;
25327;SDS011;13279;51.300;12.394;2023-05-10T06:08:13;5.23;;;3.17;;
25327;SDS011;13279;51.300;12.394;2023-05-10T06:10:41;9.87;;;4.20;;
25327;SDS011;13279;51.300;12.394;2023-05-10T06:13:08;4.97;;;3.73;;
25327;SDS011;13279;51.300;12.394;2023-05-10T06:15:37;5.20;;;3.23;;
25327;SDS011;13279;51.300;12.394;2023-05-10T06:18:05;5.00;;;3.27;;
25327;SDS011;13279;51.300;12.394;2023-05-10T06:20:32;4.43;;;3.60;;
25327;SDS011;13279;51.300;12.394;2023-05-10T06:23:00;3.23;;;2.93;;
25327;SDS011;13279;51.300;12.394;2023-05-10T06:25:27;14.77;;;3.63;;
25327;SDS011;13279;51.300;12.394;2023-05-10T06:27:55;7.90;;;3.60;;
25327;SDS011;13279;51.300;12.394;2023-05-10T06:30:23;6.40;;;3.30;;
25327;SDS011;13279;51.300;12.394;2023-05-10T06:32:55;5.30;;;3.57;;
25327;SDS011;13279;51.300;12.394;2023-05-10T06:35:22;5.23;;;3.47;;
25327;SDS011;13279;51.300;12.394;2023-05-10T06:37:50;6.27;;;3.30;;
25327;SDS011;13279;51.300;12.394;2023-05-10T06:40:17;3.90;;;3.00;;
25327;SDS011;13279;51.300;12.394;2023-05-10T06:42:46;7.30;;;3.10;;
25327;SDS011;13279;51.300;12.394;2023-05-10T06:45:13;4.13;;;3.73;;
25327;SDS011;13279;51.300;12.394;2023-05-10T06:47:41;5.90;;;3.50;;
25327;SDS011;13279;51.300;12.394;2023-05-10T06:50:10;4.80;;;3.20;;
25327;SDS011;13279;51.300;12.394;2023-05-10T06:52:39;4.67;;;3.63;;
25327;SDS011;13279;51.300;12.394;2023-05-10T06:55:06;3.73;;;3.43;;
25327;SDS011;13279;51.300;12.394;2023-05-10T06:57:35;6.00;;;3.30;;
25327;SDS011;13279;51.300;12.394;2023-05-10T07:00:02;6.63;;;3.67;;
25327;SDS011;13279;51.300;12.394;2023-05-10T07:02:31;5.07;;;3.40;;
25327;SDS011;13279;51.300;12.394;2023-05-10T07:04:58;7.73;;;4.03;;
25327;SDS011;13279;51.300;12.394;2023-05-10T07:07:28;6.07;;;3.20;;
25327;SDS011;13279;51.300;12.394;2023-05-10T07:09:55;4.70;;;3.00;;
25327;SDS011;13279;51.300;12.394;2023-05-10T07:12:23;6.03;;;3.30;;
25327;SDS011;13279;51.300;12.394;2023-05-10T07:14:50;5.60;;;3.73;;
25327;SDS011;13279;51.300;12.394;2023-05-10T07:17:18;9.53;;;3.60;;
25327;SDS011;13279;51.300;12.394;2023-05-10T07:19:45;5.13;;;3.10;;
25327;SDS011;13279;51.300;12.394;2023-05-10T07:22:13;3.80;;;3.20;;
25327;SDS011;13279;51.300;12.394;2023-05-10T07:24:42;11.07;;;3.60;;
25327;SDS011;13279;51.300;12.394;2023-05-10T07:27:10;6.87;;;3.00;;
25327;SDS011;13279;51.300;12.394;2023-05-10T07:29:38;5.43;;;3.37;;
25327;SDS011;13279;51.300;12.394;2023-05-10T07:32:06;3.57;;;3.07;;
25327;SDS011;13279;51.300;12.394;2023-05-10T07:34:33;7.53;;;3.13;;
25327;SDS011;13279;51.300;12.394;2023-05-10T07:37:01;9.90;;;3.40;;
25327;SDS011;13279;51.300;12.394;2023-05-10T07:39:28;5.13;;;3.03;;
25327;SDS011;13279;51.300;12.394;2023-05-10T07:41:57;7.23;;;3.00;;
25327;SDS011;13279;51.300;12.394;2023-05-10T07:44:24;8.70;;;3.70;;
25327;SDS011;13279;51.300;12.394;2023-05-10T07:46:51;6.30;;;3.50;;
25327;SDS011;13279;51.300;12.394;2023-05-10T07:49:19;5.17;;;4.37;;
25327;SDS011;13279;51.300;12.394;2023-05-10T07:51:47;5.80;;;3.70;;
25327;SDS011;13279;51.300;12.394;2023-05-10T07:54:14;7.67;;;3.07;;
25327;SDS011;13279;51.300;12.394;2023-05-10T07:56:42;3.57;;;3.23;;
25327;SDS011;13279;51.300;12.394;2023-05-10T07:59:16;4.47;;;3.73;;
25327;SDS011;13279;51.300;12.394;2023-05-10T08:01:44;8.27;;;3.17;;
25327;SDS011;13279;51.300;12.394;2023-05-10T08:04:11;14.73;;;3.93;;
25327;SDS011;13279;51.300;12.394;2023-05-10T08:06:39;6.83;;;3.77;;
25327;SDS011;13279;51.300;12.394;2023-05-10T08:09:06;5.57;;;3.50;;
25327;SDS011;13279;51.300;12.394;2023-05-10T08:11:35;5.93;;;3.47;;
25327;SDS011;13279;51.300;12.394;2023-05-10T08:14:02;7.20;;;3.70;;
25327;SDS011;13279;51.300;12.394;2023-05-10T08:16:31;4.93;;;3.60;;
25327;SDS011;13279;51.300;12.394;2023-05-10T08:18:59;6.87;;;4.73;;
25327;SDS011;13279;51.300;12.394;2023-05-10T08:21:27;6.37;;;3.70;;
25327;SDS011;13279;51.300;12.394;2023-05-10T08:23:54;7.67;;;3.43;;
25327;SDS011;13279;51.300;12.394;2023-05-10T08:26:22;4.60;;;3.47;;
25327;SDS011;13279;51.300;12.394;2023-05-10T08:28:49;4.17;;;3.57;;
25327;SDS011;13279;51.300;12.394;2023-05-10T08:31:17;7.60;;;3.97;;
25327;SDS011;13279;51.300;12.394;2023-05-10T08:33:46;5.00;;;3.50;;
25327;SDS011;13279;51.300;12.394;2023-05-10T08:36:13;5.03;;;3.80;;
25327;SDS011;13279;51.300;12.394;2023-05-10T08:38:44;4.67;;;3.50;;
25327;SDS011;13279;51.300;12.394;2023-05-10T08:41:12;3.73;;;3.43;;
25327;SDS011;13279;51.300;12.394;2023-05-10T08:43:40;7.20;;;3.43;;
25327;SDS011;13279;51.300;12.394;2023-05-10T08:46:12;10.00;;;3.90;;
25327;SDS011;13279;51.300;12.394;2023-05-10T08:48:42;4.53;;;3.73;;
25327;SDS011;13279;51.300;12.394;2023-05-10T08:51:12;7.50;;;3.93;;
25327;SDS011;13279;51.300;12.394;2023-05-10T08:53:41;8.10;;;4.30;;
25327;SDS011;13279;51.300;12.394;2023-05-10T08:56:09;7.27;;;4.73;;
25327;SDS011;13279;51.300;12.394;2023-05-10T08:58:38;6.37;;;4.33;;
25327;SDS011;13279;51.300;12.394;2023-05-10T09:01:05;6.17;;;4.47;;
25327;SDS011;13279;51.300;12.394;2023-05-10T09:03:34;8.40;;;4.97;;
25327;SDS011;13279;51.300;12.394;2023-05-10T09:06:05;7.40;;;5.00;;
25327;SDS011;13279;51.300;12.394;2023-05-10T09:08:34;11.47;;;5.30;;
25327;SDS011;13279;51.300;12.394;2023-05-10T09:11:03;5.93;;;4.73;;
25327;SDS011;13279;51.300;12.394;2023-05-10T09:13:31;7.07;;;5.00;;
25327;SDS011;13279;51.300;12.394;2023-05-10T09:15:59;7.23;;;5.17;;
25327;SDS011;13279;51.300;12.394;2023-05-10T09:18:27;7.87;;;5.63;;
25327;SDS011;13279;51.300;12.394;2023-05-10T09:20:55;8.17;;;5.53;;
25327;SDS011;13279;51.300;12.394;2023-05-10T09:23:22;8.00;;;5.53;;
25327;SDS011;13279;51.300;12.394;2023-05-10T09:26:04;13.37;;;6.00;;
25327;SDS011;13279;51.300;12.394;2023-05-10T09:28:32;12.67;;;6.03;;
25327;SDS011;13279;51.300;12.394;2023-05-10T09:31:00;11.03;;;6.23;;
25327;SDS011;13279;51.300;12.394;2023-05-10T09:33:28;9.17;;;6.07;;
25327;SDS011;13279;51.300;12.394;2023-05-10T09:35:55;7.63;;;6.30;;
25327;SDS011;13279;51.300;12.394;2023-05-10T09:38:44;7.33;;;6.57;;
25327;SDS011;13279;51.300;12.394;2023-05-10T09:41:16;8.90;;;7.23;;
25327;SDS011;13279;51.300;12.394;2023-05-10T09:43:45;10.97;;;6.80;;
25327;SDS011;13279;51.300;12.394;2023-05-10T09:46:12;12.57;;;6.63;;
25327;SDS011;13279;51.300;12.394;2023-05-10T09:48:41;13.70;;;6.77;;
25327;SDS011;13279;51.300;12.394;2023-05-10T09:51:09;11.23;;;7.87;;
25327;SDS011;13279;51.300;12.394;2023-05-10T09:53:39;10.10;;;7.20;;
25327;SDS011;13279;51.300;12.394;2023-05-10T09:56:07;11.70;;;7.00;;
25327;SDS011;13279;51.300;12.394;2023-05-10T09:58:37;10.23;;;7.53;;
25327;SDS011;13279;51.300;12.394;2023-05-10T10:01:09;12.10;;;7.30;;
25327;SDS011;13279;51.300;12.394;2023-05-10T10:03:41;8.43;;;6.47;;
25327;SDS011;13279;51.300;12.394;2023-05-10T10:06:10;10.50;;;7.17;;
25327;SDS011;13279;51.300;12.394;2023-05-10T10:08:37;13.00;;;7.47;;
25327;SDS011;13279;51.300;12.394;2023-05-10T10:11:05;12.37;;;8.17;;
25327;SDS011;13279;51.300;12.394;2023-05-10T10:13:33;10.30;;;7.97;;
25327;SDS011;13279;51.300;12.394;2023-05-10T10:16:02;9.57;;;7.53;;
25327;SDS011;13279;51.300;12.394;2023-05-10T10:18:31;11.10;;;7.40;;
25327;SDS011;13279;51.300;12.394;2023-05-10T10:20:58;10.90;;;8.27;;
25327;SDS011;13279;51.300;12.394;2023-05-10T10:23:27;10.93;;;7.70;;
25327;SDS011;13279;51.300;12.394;2023-05-10T10:25:57;10.43;;;7.70;;
25327;SDS011;13279;51.300;12.394;2023-05-10T10:28:26;9.47;;;7.60;;
25327;SDS011;13279;51.300;12.394;2023-05-10T10:31:15;15.47;;;8.37;;
25327;SDS011;13279;51.300;12.394;2023-05-10T10:33:54;11.87;;;8.10;;
25327;SDS011;13279;51.300;12.394;2023-05-10T10:36:27;11.37;;;7.87;;
25327;SDS011;13279;51.300;12.394;2023-05-10T10:38:58;14.90;;;8.07;;
25327;SDS011;13279;51.300;12.394;2023-05-10T10:41:27;11.13;;;8.07;;
25327;SDS011;13279;51.300;12.394;2023-05-10T10:47:01;14.50;;;9.03;;
25327;SDS011;13279;51.300;12.394;2023-05-10T10:49:37;19.37;;;9.30;;
25327;SDS011;13279;51.300;12.394;2023-05-10T10:52:13;14.03;;;9.67;;
25327;SDS011;13279;51.300;12.394;2023-05-10T10:54:51;15.80;;;9.70;;
25327;SDS011;13279;51.300;12.394;2023-05-10T11:02:53;12.67;;;9.97;;
25327;SDS011;13279;51.300;12.394;2023-05-10T11:05:59;15.37;;;9.83;;
25327;SDS011;13279;51.300;12.394;2023-05-10T11:08:57;15.70;;;9.50;;
25327;SDS011;13279;51.300;12.394;2023-05-10T11:11:35;16.13;;;9.87;;
25327;SDS011;13279;51.300;12.394;2023-05-10T11:14:27;12.93;;;9.97;;
25327;SDS011;13279;51.300;12.394;2023-05-10T11:20:51;13.17;;;9.93;;
25327;SDS011;13279;51.300;12.394;2023-05-10T11:27:42;16.50;;;11.90;;
25327;SDS011;13279;51.300;12.394;2023-05-10T11:30:16;19.07;;;11.40;;
25327;SDS011;13279;51.300;12.394;2023-05-10T11:32:50;19.70;;;13.03;;
25327;SDS011;13279;51.300;12.394;2023-05-10T11:35:28;20.10;;;12.23;;
25327;SDS011;13279;51.300;12.394;2023-05-10T11:45:41;14.97;;;11.07;;
25327;SDS011;13279;51.300;12.394;2023-05-10T11:48:29;18.23;;;11.27;;
25327;SDS011;13279;51.300;12.394;2023-05-10T11:51:35;16.93;;;11.57;;
25327;SDS011;13279;51.300;12.394;2023-05-10T11:54:13;17.10;;;11.10;;
25327;SDS011;13279;51.300;12.394;2023-05-10T11:56:47;15.57;;;10.67;;
25327;SDS011;13279;51.300;12.394;2023-05-10T12:02:59;15.03;;;11.13;;
25327;SDS011;13279;51.300;12.394;2023-05-10T12:05:47;15.70;;;10.33;;
25327;SDS011;13279;51.300;12.394;2023-05-10T12:08:43;12.83;;;9.60;;
25327;SDS011;13279;51.300;12.394;2023-05-10T12:11:16;13.73;;;10.07;;
25327;SDS011;13279;51.300;12.394;2023-05-10T12:13:56;14.07;;;9.83;;
25327;SDS011;13279;51.300;12.394;2023-05-10T12:16:39;12.27;;;9.73;;
25327;SDS011;13279;51.300;12.394;2023-05-10T12:19:39;14.27;;;10.33;;
25327;SDS011;13279;51.300;12.394;2023-05-10T12:22:09;17.00;;;9.27;;
25327;SDS011;13279;51.300;12.394;2023-05-10T12:24:36;14.27;;;10.00;;
25327;SDS011;13279;51.300;12.394;2023-05-10T12:27:06;13.13;;;10.03;;
25327;SDS011;13279;51.300;12.394;2023-05-10T12:29:35;12.90;;;10.00;;
25327;SDS011;13279;51.300;12.394;2023-05-10T12:32:06;15.47;;;9.97;;
25327;SDS011;13279;51.300;12.394;2023-05-10T12:34:34;15.17;;;9.97;;
25327;SDS011;13279;51.300;12.394;2023-05-10T12:37:05;11.57;;;9.13;;
25327;SDS011;13279;51.300;12.394;2023-05-10T12:39:39;16.57;;;10.07;;
25327;SDS011;13279;51.300;12.394;2023-05-10T12:42:07;11.13;;;9.10;;
25327;SDS011;13279;51.300;12.394;2023-05-10T12:44:35;12.77;;;9.37;;
25327;SDS011;13279;51.300;12.394;2023-05-10T12:47:14;10.53;;;7.87;;
25327;SDS011;13279;51.300;12.394;2023-05-10T12:50:09;8.33;;;6.23;;
25327;SDS011;13279;51.300;12.394;2023-05-10T12:52:40;8.60;;;6.47;;
25327;SDS011;13279;51.300;12.394;2023-05-10T12:55:07;8.20;;;6.80;;
25327;SDS011;13279;51.300;12.394;2023-05-10T12:57:35;12.53;;;7.57;;
25327;SDS011;13279;51.300;12.394;2023-05-10T13:00:06;10.57;;;8.27;;
25327;SDS011;13279;51.300;12.394;2023-05-10T13:02:34;7.80;;;6.83;;
25327;SDS011;13279;51.300;12.394;2023-05-10T13:05:02;9.83;;;7.60;;
25327;SDS011;13279;51.300;12.394;2023-05-10T13:07:29;8.00;;;6.23;;
25327;SDS011;13279;51.300;12.394;2023-05-10T13:09:58;8.63;;;6.13;;
25327;SDS011;13279;51.300;12.394;2023-05-10T13:12:25;6.50;;;5.50;;
25327;SDS011;13279;51.300;12.394;2023-05-10T13:14:53;7.50;;;5.63;;
25327;SDS011;13279;51.300;12.394;2023-05-10T13:17:20;8.17;;;5.43;;
25327;SDS011;13279;51.300;12.394;2023-05-10T13:19:48;8.03;;;5.53;;
25327;SDS011;13279;51.300;12.394;2023-05-10T13:22:15;5.77;;;4.83;;
25327;SDS011;13279;51.300;12.394;2023-05-10T13:24:45;7.23;;;5.37;;
25327;SDS011;13279;51.300;12.394;2023-05-10T13:27:17;5.00;;;4.13;;
25327;SDS011;13279;51.300;12.394;2023-05-10T13:29:45;5.90;;;5.30;;
25327;SDS011;13279;51.300;12.394;2023-05-10T13:32:13;6.17;;;4.97;;
25327;SDS011;13279;51.300;12.394;2023-05-10T13:34:40;8.37;;;5.27;;
25327;SDS011;13279;51.300;12.394;2023-05-10T13:37:08;5.60;;;5.10;;
25327;SDS011;13279;51.300;12.394;2023-05-10T13:39:35;6.93;;;4.70;;
25327;SDS011;13279;51.300;12.394;2023-05-10T13:42:03;5.43;;;4.87;;
25327;SDS011;13279;51.300;12.394;2023-05-10T13:44:35;4.80;;;4.23;;
25327;SDS011;13279;51.300;12.394;2023-05-10T13:47:06;5.80;;;4.40;;
25327;SDS011;13279;51.300;12.394;2023-05-10T13:49:33;5.30;;;4.50;;
25327;SDS011;13279;51.300;12.394;2023-05-10T13:52:08;5.43;;;4.93;;
25327;SDS011;13279;51.300;12.394;2023-05-10T13:55:07;6.57;;;5.03;;
25327;SDS011;13279;51.300;12.394;2023-05-10T14:00:21;6.10;;;5.50;;
25327;SDS011;13279;51.300;12.394;2023-05-10T14:02:49;6.17;;;5.57;;
25327;SDS011;13279;51.300;12.394;2023-05-10T14:05:25;7.77;;;5.40;;
25327;SDS011;13279;51.300;12.394;2023-05-10T14:07:53;6.97;;;6.23;;
25327;SDS011;13279;51.300;12.394;2023-05-10T14:10:20;5.97;;;5.37;;
25327;SDS011;13279;51.300;12.394;2023-05-10T14:12:49;7.43;;;6.40;;
25327;SDS011;13279;51.300;12.394;2023-05-10T14:15:16;7.50;;;6.40;;
25327;SDS011;13279;51.300;12.394;2023-05-10T14:17:45;7.17;;;6.30;;
25327;SDS011;13279;51.300;12.394;2023-05-10T14:20:12;8.63;;;7.10;;
25327;SDS011;13279;51.300;12.394;2023-05-10T14:22:41;8.33;;;7.47;;
25327;SDS011;13279;51.300;12.394;2023-05-10T14:25:08;9.83;;;8.23;;
25327;SDS011;13279;51.300;12.394;2023-05-10T14:27:36;11.43;;;8.67;;
25327;SDS011;13279;51.300;12.394;2023-05-10T14:30:26;11.70;;;8.43;;
25327;SDS011;13279;51.300;12.394;2023-05-10T14:32:59;10.57;;;8.23;;
25327;SDS011;13279;51.300;12.394;2023-05-10T14:35:26;14.50;;;10.03;;
25327;SDS011;13279;51.300;12.394;2023-05-10T14:37:56;12.83;;;9.80;;
25327;SDS011;13279;51.300;12.394;2023-05-10T14:40:24;11.50;;;9.10;;
25327;SDS011;13279;51.300;12.394;2023-05-10T14:42:52;11.83;;;8.70;;
25327;SDS011;13279;51.300;12.394;2023-05-10T14:49:41;4.57;;;3.70;;
25327;SDS011;13279;51.300;12.394;2023-05-10T14:52:28;1.10;;;1.10;;
25327;SDS011;13279;51.300;12.394;2023-05-10T14:55:05;2.80;;;1.60;;
25327;SDS011;13279;51.300;12.394;2023-05-10T14:57:33;2.70;;;2.50;;
25327;SDS011;13279;51.300;12.394;2023-05-10T15:00:01;2.70;;;2.37;;
25327;SDS011;13279;51.300;12.394;2023-05-10T15:02:30;1.73;;;1.63;;
25327;SDS011;13279;51.300;12.394;2023-05-10T15:04:59;5.10;;;1.87;;
25327;SDS011;13279;51.300;12.394;2023-05-10T15:08:56;3.50;;;2.53;;
25327;SDS011;13279;51.300;12.394;2023-05-10T15:10:59;7.33;;;2.60;;
25327;SDS011;13279;51.300;12.394;2023-05-10T15:13:26;3.67;;;2.77;;
25327;SDS011;13279;51.300;12.394;2023-05-10T15:15:54;2.80;;;2.60;;
25327;SDS011;13279;51.300;12.394;2023-05-10T15:18:24;2.63;;;2.53;;
25327;SDS011;13279;51.300;12.394;2023-05-10T15:21:09;6.57;;;3.23;;
25327;SDS011;13279;51.300;12.394;2023-05-10T15:23:38;4.10;;;2.97;;
25327;SDS011;13279;51.300;12.394;2023-05-10T15:26:06;4.17;;;2.30;;
25327;SDS011;13279;51.300;12.394;2023-05-10T15:28:33;3.33;;;3.03;;